createdAt,value
2023-01-12T00:01:27.811Z,6.00
2023-01-12T00:03:54.931Z,5.60
2023-01-12T00:06:22.748Z,6.60
2023-01-12T00:08:50.992Z,7.80
2023-01-12T00:11:18.617Z,7.20
2023-01-12T00:13:45.363Z,6.00
2023-01-12T00:16:38.984Z,5.80
2023-01-12T00:19:13.003Z,5.60
2023-01-12T00:21:47.924Z,4.80
2023-01-12T00:24:16.000Z,4.30
2023-01-12T00:26:42.850Z,4.90
2023-01-12T00:29:09.634Z,4.70
2023-01-12T00:31:36.222Z,5.00
2023-01-12T00:34:02.709Z,4.90
2023-01-12T00:36:29.301Z,4.70
2023-01-12T00:38:55.750Z,6.20
2023-01-12T00:41:40.838Z,6.10
2023-01-12T00:44:26.016Z,6.50
2023-01-12T00:46:52.533Z,6.30
2023-01-12T00:49:19.169Z,6.40
2023-01-12T00:51:45.674Z,7.00
2023-01-12T00:54:12.203Z,7.30
2023-01-12T00:56:38.901Z,8.20
2023-01-12T00:59:05.511Z,9.50
2023-01-12T01:01:33.211Z,9.70
2023-01-12T01:04:00.849Z,9.20
2023-01-12T01:06:27.517Z,21.30
2023-01-12T01:08:53.980Z,25.20
2023-01-12T01:11:20.458Z,20.40
2023-01-12T01:13:48.380Z,18.60
2023-01-12T01:16:16.783Z,12.90
2023-01-12T01:18:43.563Z,9.70
2023-01-12T01:21:13.086Z,8.80
2023-01-12T01:23:41.110Z,10.30
2023-01-12T01:26:14.658Z,10.30
2023-01-12T01:28:42.249Z,9.60
2023-01-12T01:31:20.956Z,9.80
2023-01-12T01:33:48.852Z,8.90
2023-01-12T01:36:16.029Z,8.40
2023-01-12T01:38:45.342Z,7.60
2023-01-12T01:41:24.886Z,7.60
2023-01-12T01:43:59.847Z,7.30
2023-01-12T01:46:49.887Z,7.10
2023-01-12T01:49:31.492Z,6.50
2023-01-12T01:52:08.941Z,7.10
2023-01-12T01:54:41.079Z,6.60
2023-01-12T01:57:10.741Z,6.90
2023-01-12T01:59:46.290Z,6.20
2023-01-12T02:02:13.757Z,6.10
2023-01-12T02:04:40.579Z,5.90
2023-01-12T02:07:08.135Z,6.00
2023-01-12T02:09:35.426Z,5.70
2023-01-12T02:12:21.388Z,5.50
2023-01-12T02:15:09.662Z,5.00
2023-01-12T02:17:57.106Z,5.40
2023-01-12T02:20:47.890Z,5.80
2023-01-12T02:23:31.996Z,6.30
2023-01-12T02:26:29.362Z,5.90
2023-01-12T02:28:58.578Z,6.10
2023-01-12T02:31:53.895Z,6.50
2023-01-12T02:34:41.981Z,6.50
2023-01-12T02:37:32.155Z,6.50
2023-01-12T02:40:24.681Z,6.90
2023-01-12T02:43:07.119Z,6.80
2023-01-12T02:45:42.365Z,6.90
2023-01-12T02:48:14.831Z,6.30
2023-01-12T02:50:59.676Z,6.50
2023-01-12T02:53:42.537Z,6.30
2023-01-12T02:56:10.825Z,5.70
2023-01-12T02:58:43.673Z,5.80
2023-01-12T03:01:13.576Z,5.70
2023-01-12T03:03:41.974Z,5.10
2023-01-12T03:06:09.309Z,5.70
2023-01-12T03:08:39.145Z,6.60
2023-01-12T03:11:13.340Z,6.30
2023-01-12T03:13:53.801Z,6.40
2023-01-12T03:16:24.773Z,6.60
2023-01-12T03:19:15.635Z,7.10
2023-01-12T03:21:48.688Z,6.70
2023-01-12T03:24:21.188Z,7.10
2023-01-12T03:26:51.485Z,7.40
2023-01-12T03:29:43.926Z,7.70
2023-01-12T03:32:10.552Z,6.90
2023-01-12T03:34:38.177Z,7.70
2023-01-12T03:37:16.748Z,8.30
2023-01-12T03:39:49.110Z,7.10
2023-01-12T03:42:32.268Z,6.20
2023-01-12T03:45:17.212Z,7.50
2023-01-12T03:47:44.236Z,6.80
2023-01-12T03:50:21.522Z,7.20
2023-01-12T03:52:49.127Z,6.90
2023-01-12T03:55:19.111Z,7.10
2023-01-12T03:57:46.844Z,6.60
2023-01-12T04:00:15.381Z,7.20
2023-01-12T04:02:45.211Z,6.80
2023-01-12T04:05:13.758Z,6.90
2023-01-12T04:07:40.459Z,7.30
2023-01-12T04:10:07.627Z,6.70
2023-01-12T04:12:34.111Z,6.50
2023-01-12T04:15:00.595Z,7.60
2023-01-12T04:17:28.485Z,6.80
2023-01-12T04:19:55.005Z,6.80
2023-01-12T04:22:40.066Z,6.90
2023-01-12T04:25:09.373Z,6.80
2023-01-12T04:27:40.238Z,6.70
2023-01-12T04:30:07.453Z,6.90
2023-01-12T04:32:33.944Z,6.40
2023-01-12T04:35:00.421Z,6.40
2023-01-12T04:37:26.931Z,6.30
2023-01-12T04:39:53.611Z,6.00
2023-01-12T04:42:38.620Z,6.00
2023-01-12T04:45:05.625Z,4.90
2023-01-12T04:47:33.070Z,5.40
2023-01-12T04:49:59.515Z,5.30
2023-01-12T04:52:25.992Z,6.20
2023-01-12T04:54:52.726Z,6.30
2023-01-12T05:11:29.079Z,7.90
2023-01-12T05:13:57.311Z,7.10
2023-01-12T05:16:26.630Z,6.70
2023-01-12T05:18:54.823Z,6.80
2023-01-12T05:21:24.277Z,6.30
2023-01-12T05:23:53.218Z,5.70
2023-01-12T05:26:21.576Z,7.40
2023-01-12T05:28:51.121Z,5.20
2023-01-12T05:31:22.510Z,4.90
2023-01-12T05:33:50.580Z,5.50
2023-01-12T05:36:18.570Z,5.70
2023-01-12T05:38:46.648Z,5.20
2023-01-12T05:41:14.984Z,5.70
2023-01-12T05:43:53.095Z,5.60
2023-01-12T05:46:26.695Z,5.40
2023-01-12T05:48:56.355Z,5.80
2023-01-12T05:51:26.537Z,5.70
2023-01-12T05:53:55.203Z,5.50
2023-01-12T05:56:28.522Z,5.60
2023-01-12T05:58:59.377Z,5.90
2023-01-12T06:01:29.490Z,5.60
2023-01-12T06:04:01.905Z,5.80
2023-01-12T06:06:31.892Z,5.00
2023-01-12T06:09:01.529Z,5.30
2023-01-12T06:11:48.955Z,5.30
2023-01-12T06:14:17.064Z,4.70
2023-01-12T06:16:45.511Z,5.10
2023-01-12T06:19:13.709Z,5.20
2023-01-12T06:21:41.787Z,5.40
2023-01-12T06:24:09.968Z,5.50
2023-01-12T06:26:38.260Z,5.90
2023-01-12T06:29:07.345Z,6.70
2023-01-12T06:31:36.584Z,6.70
2023-01-12T06:34:04.950Z,6.90
2023-01-12T06:36:32.881Z,6.30
2023-01-12T06:39:00.777Z,5.50
2023-01-12T06:41:47.329Z,5.10
2023-01-12T06:44:15.171Z,4.70
2023-01-12T06:46:43.068Z,4.30
2023-01-12T06:49:11.059Z,4.10
2023-01-12T06:51:39.548Z,4.00
2023-01-12T06:54:07.548Z,4.10
2023-01-12T06:56:35.441Z,4.70
2023-01-12T06:59:03.459Z,4.40
2023-01-12T07:01:31.692Z,4.30
2023-01-12T07:03:59.568Z,4.00
2023-01-12T07:06:27.493Z,4.90
2023-01-12T07:08:55.358Z,5.30
2023-01-12T07:11:23.330Z,11.40
2023-01-12T07:13:51.171Z,5.20
2023-01-12T07:16:19.378Z,5.40
2023-01-12T07:18:48.122Z,5.20
2023-01-12T07:21:19.823Z,4.60
2023-01-12T07:23:47.929Z,4.90
2023-01-12T07:26:15.804Z,4.50
2023-01-12T07:28:43.646Z,5.90
2023-01-12T07:31:12.374Z,4.90
2023-01-12T07:33:40.385Z,5.00
2023-01-12T07:36:08.408Z,6.60
2023-01-12T07:38:37.352Z,6.40
2023-01-12T07:41:05.376Z,7.30
2023-01-12T07:43:33.714Z,6.80
2023-01-12T07:46:02.080Z,6.00
2023-01-12T07:48:30.894Z,5.40
2023-01-12T07:50:59.061Z,6.50
2023-01-12T07:53:26.990Z,5.80
2023-01-12T07:55:55.049Z,8.50
2023-01-12T07:58:23.314Z,14.10
2023-01-12T08:00:51.151Z,14.50
2023-01-12T08:03:19.016Z,12.80
2023-01-12T08:05:46.881Z,11.70
2023-01-12T08:08:14.728Z,13.00
2023-01-12T08:10:43.694Z,13.90
2023-01-12T08:13:11.594Z,11.60
2023-01-12T08:15:44.098Z,12.80
2023-01-12T08:18:23.021Z,10.60
2023-01-12T08:20:52.760Z,10.20
2023-01-12T08:23:27.805Z,8.60
2023-01-12T08:25:59.735Z,6.60
2023-01-12T08:28:43.807Z,5.20
2023-01-12T08:31:15.252Z,5.20
2023-01-12T08:33:43.689Z,5.70
2023-01-12T08:36:15.734Z,7.20
2023-01-12T08:38:43.788Z,7.70
2023-01-12T08:41:30.112Z,8.00
2023-01-12T08:44:07.098Z,7.50
2023-01-12T08:46:45.345Z,5.90
2023-01-12T08:49:16.653Z,5.40
2023-01-12T08:51:45.890Z,5.10
2023-01-12T08:54:16.735Z,4.20
2023-01-12T08:56:45.295Z,4.50
2023-01-12T08:59:13.356Z,4.50
2023-01-12T09:01:41.346Z,4.80
2023-01-12T09:04:09.340Z,3.60
2023-01-12T09:06:40.256Z,3.00
2023-01-12T09:09:10.923Z,3.10
2023-01-12T09:11:42.618Z,3.50
2023-01-12T09:14:12.033Z,3.10
2023-01-12T09:16:40.409Z,3.50
2023-01-12T09:19:09.332Z,3.80
2023-01-12T09:21:39.903Z,3.70
2023-01-12T09:24:08.244Z,3.40
2023-01-12T09:26:41.974Z,3.70
2023-01-12T09:29:11.698Z,3.10
2023-01-12T09:31:43.072Z,3.10
2023-01-12T09:34:11.756Z,3.40
2023-01-12T09:36:40.868Z,2.70
2023-01-12T09:39:12.822Z,2.80
2023-01-12T09:42:07.094Z,2.90
2023-01-12T09:44:56.916Z,3.10
2023-01-12T09:47:48.123Z,4.00
2023-01-12T09:50:21.957Z,3.50
2023-01-12T09:53:05.008Z,3.60
2023-01-12T09:55:55.926Z,3.30
2023-01-12T09:58:42.062Z,4.20
2023-01-12T10:01:20.636Z,4.80
2023-01-12T10:03:56.815Z,5.20
2023-01-12T10:06:24.675Z,4.10
2023-01-12T10:08:56.573Z,3.60
2023-01-12T10:11:32.067Z,3.40
2023-01-12T10:14:24.817Z,3.80
2023-01-12T10:17:17.763Z,5.80
2023-01-12T10:19:50.804Z,4.80
2023-01-12T10:22:39.508Z,4.90
2023-01-12T10:25:26.873Z,3.80
2023-01-12T10:27:57.174Z,3.50
2023-01-12T10:30:32.824Z,3.50
2023-01-12T10:33:13.020Z,4.10
2023-01-12T10:36:03.091Z,3.70
2023-01-12T10:38:38.427Z,3.50
2023-01-12T10:41:19.735Z,3.60
2023-01-12T10:43:56.528Z,4.40
2023-01-12T10:46:31.769Z,3.50
2023-01-12T10:49:23.392Z,3.90
2023-01-12T10:51:51.466Z,3.50
2023-01-12T10:54:23.046Z,4.50
2023-01-12T10:56:58.822Z,3.90
2023-01-12T10:59:31.745Z,3.60
2023-01-12T11:02:05.799Z,3.50
2023-01-12T11:04:44.659Z,3.00
2023-01-12T11:07:22.987Z,3.30
2023-01-12T11:09:50.846Z,3.80
2023-01-12T11:12:30.068Z,4.30
2023-01-12T11:15:10.370Z,4.10
2023-01-12T11:17:49.748Z,3.10
2023-01-12T11:20:30.164Z,3.00
2023-01-12T11:23:02.479Z,3.80
2023-01-12T11:25:35.942Z,3.00
2023-01-12T11:28:14.377Z,3.30
2023-01-12T11:30:51.704Z,3.30
2023-01-12T11:33:40.038Z,2.90
2023-01-12T11:36:14.768Z,3.50
2023-01-12T11:38:46.524Z,3.20
2023-01-12T11:41:29.581Z,3.30
2023-01-12T11:44:13.791Z,3.60
2023-01-12T11:46:56.210Z,3.10
2023-01-12T11:49:41.113Z,3.10
2023-01-12T11:52:13.299Z,3.80
2023-01-12T11:54:41.968Z,4.00
2023-01-12T11:57:12.577Z,3.70
2023-01-12T12:00:08.084Z,3.00
2023-01-12T12:03:20.459Z,4.10
2023-01-12T12:05:58.505Z,8.80
2023-01-12T12:08:48.246Z,4.10
2023-01-12T12:11:18.823Z,3.10
2023-01-12T12:14:04.391Z,5.30
2023-01-12T12:16:58.895Z,3.90
2023-01-12T12:20:00.865Z,3.50
2023-01-12T12:22:54.559Z,4.00
2023-01-12T12:25:31.454Z,3.90
2023-01-12T12:28:08.427Z,5.30
2023-01-12T12:30:53.786Z,5.30
2023-01-12T12:33:31.643Z,5.40
2023-01-12T12:36:02.835Z,4.90
2023-01-12T12:39:12.668Z,5.20
2023-01-12T12:42:11.175Z,5.20
2023-01-12T12:45:18.621Z,5.10
2023-01-12T12:48:11.281Z,4.90
2023-01-12T12:51:00.496Z,7.80
2023-01-12T12:53:35.921Z,5.60
2023-01-12T12:56:07.804Z,10.20
2023-01-12T12:58:46.330Z,7.30
2023-01-12T13:01:20.357Z,8.40
2023-01-12T13:03:57.275Z,8.30
2023-01-12T13:06:31.401Z,8.60
2023-01-12T13:09:05.636Z,7.40
2023-01-12T13:11:54.752Z,6.00
2023-01-12T13:14:30.092Z,7.60
2023-01-12T13:17:03.681Z,6.80
2023-01-12T13:19:45.897Z,6.40
2023-01-12T13:22:16.672Z,7.00
2023-01-12T13:24:44.683Z,5.70
2023-01-12T13:27:49.863Z,3.90
2023-01-12T13:30:51.368Z,3.80
2023-01-12T13:33:25.628Z,3.80
2023-01-12T13:35:53.639Z,3.50
2023-01-12T13:38:49.255Z,4.40
2023-01-12T13:41:41.165Z,3.30
2023-01-12T13:44:37.606Z,3.60
2023-01-12T13:47:13.600Z,2.70
2023-01-12T13:50:01.452Z,3.30
2023-01-12T13:52:35.437Z,4.80
2023-01-12T13:55:17.538Z,3.80
2023-01-12T13:57:58.182Z,4.80
2023-01-12T14:00:27.190Z,15.50
2023-01-12T14:02:56.221Z,7.50
2023-01-12T14:06:11.445Z,7.60
2023-01-12T14:08:56.501Z,8.20
2023-01-12T14:12:01.481Z,6.40
2023-01-12T14:15:12.790Z,4.80
2023-01-12T14:17:49.215Z,8.90
2023-01-12T14:20:22.865Z,4.20
2023-01-12T14:25:22.382Z,4.30
2023-01-12T14:27:56.454Z,5.00
2023-01-12T14:30:27.553Z,5.40
2023-01-12T14:32:55.611Z,4.10
2023-01-12T14:35:25.888Z,3.30
2023-01-12T14:37:58.000Z,3.60
2023-01-12T14:40:30.590Z,5.40
2023-01-12T14:43:18.519Z,4.10
2023-01-12T14:46:27.848Z,3.60
2023-01-12T14:49:17.341Z,6.20
2023-01-12T14:52:15.064Z,4.90
2023-01-12T14:54:43.342Z,8.60
2023-01-12T14:57:51.173Z,4.70
2023-01-12T15:00:25.355Z,5.90
2023-01-12T15:02:55.657Z,3.80
2023-01-12T15:05:26.662Z,4.30
2023-01-12T15:08:22.144Z,3.70
2023-01-12T15:11:10.547Z,3.10
2023-01-12T15:13:38.503Z,3.80
2023-01-12T15:16:25.319Z,4.30
2023-01-12T15:19:11.499Z,4.30
2023-01-12T15:22:01.422Z,4.00
2023-01-12T15:24:50.421Z,3.90
2023-01-12T15:27:21.265Z,4.70
2023-01-12T15:29:49.131Z,3.60
2023-01-12T15:32:23.833Z,5.30
2023-01-12T15:34:54.140Z,4.20
2023-01-12T15:37:22.117Z,4.80
2023-01-12T15:39:50.083Z,4.30
2023-01-12T15:42:22.708Z,4.20
2023-01-12T15:44:52.171Z,4.30
2023-01-12T15:47:21.343Z,4.50
2023-01-12T15:49:51.171Z,4.20
2023-01-12T15:52:23.088Z,3.40
2023-01-12T15:54:51.419Z,3.50
2023-01-12T15:57:19.335Z,3.80
2023-01-12T15:59:47.150Z,4.90
2023-01-12T16:02:33.227Z,6.20
2023-01-12T16:05:02.757Z,6.70
2023-01-12T16:07:30.702Z,4.20
2023-01-12T16:09:59.682Z,4.70
2023-01-12T16:12:27.625Z,4.40
2023-01-12T16:14:57.803Z,4.40
2023-01-12T16:17:26.105Z,4.20
2023-01-12T16:19:54.069Z,3.70
2023-01-12T16:22:26.350Z,4.50
2023-01-12T16:24:56.411Z,3.90
2023-01-12T16:27:26.049Z,4.70
2023-01-12T16:29:54.335Z,4.30
2023-01-12T16:32:24.415Z,4.10
2023-01-12T16:34:52.565Z,3.50
2023-01-12T16:37:22.968Z,3.60
2023-01-12T16:39:50.779Z,5.30
2023-01-12T16:42:18.598Z,7.90
2023-01-12T16:44:49.945Z,5.60
2023-01-12T16:47:20.261Z,5.00
2023-01-12T16:49:50.665Z,4.30
2023-01-12T16:52:21.507Z,3.30
2023-01-12T16:54:49.325Z,3.60
2023-01-12T16:57:18.711Z,4.30
2023-01-12T16:59:46.964Z,4.60
2023-01-12T17:02:16.931Z,3.90
2023-01-12T17:04:45.741Z,4.40
2023-01-12T17:07:13.765Z,4.90
2023-01-12T17:09:42.261Z,4.90
2023-01-12T17:12:10.447Z,5.30
2023-01-12T17:14:38.499Z,5.00
2023-01-12T17:17:08.987Z,4.50
2023-01-12T17:19:39.396Z,4.90
2023-01-12T17:22:08.185Z,5.40
2023-01-12T17:24:40.222Z,4.10
2023-01-12T17:27:09.965Z,4.40
2023-01-12T17:29:38.384Z,4.70
2023-01-12T17:32:07.454Z,5.00
2023-01-12T17:34:38.211Z,3.20
2023-01-12T17:37:09.985Z,4.90
2023-01-12T17:39:40.030Z,4.70
2023-01-12T17:42:28.115Z,5.50
2023-01-12T17:44:55.957Z,5.00
2023-01-12T17:47:24.834Z,4.40
2023-01-12T17:49:54.250Z,4.20
2023-01-12T17:52:22.215Z,3.30
2023-01-12T17:54:50.077Z,4.50
2023-01-12T17:57:17.969Z,5.20
2023-01-12T17:59:46.183Z,4.00
2023-01-12T18:02:15.253Z,3.40
2023-01-12T18:04:43.225Z,4.60
2023-01-12T18:07:11.185Z,4.60
2023-01-12T18:09:39.485Z,3.40
2023-01-12T18:12:07.436Z,3.10
2023-01-12T18:14:35.322Z,3.10
2023-01-12T18:17:03.274Z,2.20
2023-01-12T18:19:31.379Z,3.40
2023-01-12T18:22:01.409Z,3.10
2023-01-12T18:24:29.585Z,3.50
2023-01-12T18:26:57.385Z,2.90
2023-01-12T18:29:25.330Z,3.90
2023-01-12T18:31:53.189Z,3.80
2023-01-12T18:34:21.156Z,3.00
2023-01-12T18:36:49.071Z,3.20
2023-01-12T18:39:19.099Z,3.20
2023-01-12T18:42:06.953Z,3.50
2023-01-12T18:44:35.615Z,2.70
2023-01-12T18:47:22.382Z,3.40
2023-01-12T18:49:50.445Z,4.20
2023-01-12T18:52:37.199Z,4.60
2023-01-12T18:55:05.685Z,2.80
2023-01-12T18:57:34.139Z,2.40
2023-01-12T19:00:15.784Z,3.30
2023-01-12T19:02:44.641Z,2.70
2023-01-12T19:05:24.114Z,2.60
2023-01-12T19:08:05.180Z,2.50
2023-01-12T19:10:34.246Z,2.20
2023-01-12T19:13:20.347Z,1.80
2023-01-12T19:16:06.934Z,1.80
2023-01-12T19:18:37.298Z,2.40
2023-01-12T19:21:27.219Z,2.60
2023-01-12T19:24:27.356Z,2.00
2023-01-12T19:27:13.488Z,1.90
2023-01-12T19:29:43.301Z,2.80
2023-01-12T19:32:12.538Z,2.30
2023-01-12T19:34:40.645Z,3.30
2023-01-12T19:37:08.529Z,4.90
2023-01-12T19:39:44.077Z,5.20
2023-01-12T19:42:32.682Z,3.10
2023-01-12T19:45:00.591Z,4.20
2023-01-12T19:47:28.524Z,3.00
2023-01-12T19:49:56.328Z,2.90
2023-01-12T19:52:24.224Z,3.20
2023-01-12T19:54:52.175Z,4.80
2023-01-12T19:57:20.112Z,3.00
2023-01-12T19:59:48.378Z,3.60
2023-01-12T20:02:16.386Z,3.30
2023-01-12T20:04:44.414Z,2.30
2023-01-12T20:07:12.264Z,2.60
2023-01-12T20:09:40.138Z,3.80
2023-01-12T20:12:08.485Z,3.20
2023-01-12T20:14:36.387Z,2.60
2023-01-12T20:17:05.561Z,2.40
2023-01-12T20:19:34.023Z,3.00
2023-01-12T20:22:02.736Z,2.70
2023-01-12T20:24:30.659Z,2.50
2023-01-12T20:26:58.471Z,2.70
2023-01-12T20:29:26.435Z,1.90
2023-01-12T20:31:54.767Z,2.30
2023-01-12T20:34:22.624Z,2.90
2023-01-12T20:36:50.705Z,1.80
2023-01-12T20:39:18.633Z,2.30
2023-01-12T20:41:49.040Z,2.00
2023-01-12T20:44:17.905Z,2.10
2023-01-12T20:46:45.792Z,2.40
2023-01-12T20:49:13.848Z,2.10
2023-01-12T20:51:41.698Z,1.80
2023-01-12T20:54:10.392Z,1.80
2023-01-12T20:56:38.253Z,1.90
2023-01-12T20:59:06.405Z,2.20
2023-01-12T21:01:34.766Z,1.60
2023-01-12T21:04:03.741Z,2.10
2023-01-12T21:06:31.608Z,2.10
2023-01-12T21:08:59.554Z,1.70
2023-01-12T21:11:27.432Z,1.80
2023-01-12T21:13:56.381Z,2.00
2023-01-12T21:16:24.290Z,2.00
2023-01-12T21:18:52.354Z,1.70
2023-01-12T21:21:20.164Z,1.80
2023-01-12T21:23:48.108Z,2.00
2023-01-12T21:26:16.133Z,2.00
2023-01-12T21:28:43.996Z,2.10
2023-01-12T21:31:12.932Z,1.90
2023-01-12T21:33:40.835Z,1.90
2023-01-12T21:36:11.615Z,1.80
2023-01-12T21:38:39.565Z,1.70
2023-01-12T21:41:07.409Z,1.80
2023-01-12T21:43:35.327Z,1.70
2023-01-12T21:46:06.262Z,2.00
2023-01-12T21:48:35.551Z,2.70
2023-01-12T21:51:05.479Z,2.90
2023-01-12T21:53:34.148Z,2.40
2023-01-12T21:56:03.519Z,2.20
2023-01-12T21:58:34.053Z,2.00
2023-01-12T22:01:08.757Z,1.70
2023-01-12T22:03:37.062Z,1.70
2023-01-12T22:06:07.533Z,1.60
2023-01-12T22:08:37.240Z,1.60
2023-01-12T22:11:12.569Z,1.30
2023-01-12T22:13:41.004Z,1.50
2023-01-12T22:16:11.798Z,1.40
2023-01-12T22:18:39.996Z,1.50
2023-01-12T22:21:09.352Z,1.30
2023-01-12T22:23:38.170Z,1.70
2023-01-12T22:26:11.350Z,1.70
2023-01-12T22:28:42.516Z,1.70
2023-01-12T22:31:18.833Z,1.70
2023-01-12T22:33:48.888Z,1.70
2023-01-12T22:36:16.730Z,1.70
2023-01-12T22:38:44.575Z,1.80
2023-01-12T22:41:12.952Z,1.80
2023-01-12T22:43:40.950Z,1.90
2023-01-12T22:46:13.740Z,1.90
2023-01-12T22:48:42.096Z,1.60
2023-01-12T22:51:10.301Z,2.00
2023-01-12T22:53:38.106Z,1.50
2023-01-12T22:56:06.461Z,1.60
2023-01-12T22:58:34.282Z,1.60
2023-01-12T23:01:07.266Z,1.50
2023-01-12T23:03:36.886Z,1.80
2023-01-12T23:06:05.863Z,1.60
2023-01-12T23:08:33.918Z,1.70
2023-01-12T23:11:10.811Z,1.60
2023-01-12T23:13:40.263Z,1.40
2023-01-12T23:16:10.519Z,1.80
2023-01-12T23:18:40.056Z,1.70
2023-01-12T23:21:15.572Z,1.80
2023-01-12T23:23:46.090Z,1.80
2023-01-12T23:26:16.992Z,1.70
2023-01-12T23:28:47.460Z,1.70
2023-01-12T23:31:18.185Z,1.80
2023-01-12T23:33:46.187Z,1.80
2023-01-12T23:36:17.040Z,2.20
2023-01-12T23:38:45.258Z,1.60
2023-01-12T23:41:19.214Z,1.80
2023-01-12T23:43:49.555Z,1.70
2023-01-12T23:46:22.025Z,1.80
2023-01-12T23:48:51.743Z,1.60
2023-01-12T23:51:19.722Z,2.00
2023-01-12T23:53:48.835Z,1.90
2023-01-12T23:56:17.108Z,2.30
2023-01-12T23:58:45.599Z,1.70
